Time;durP1;ratioP1;P1;durP2;ratioP2;P2;SDS_P1;SDS_P2;PMS_P1;PMS_P2;Temp;Humidity;BMP_temperature;BMP_pressure;BME280_temperature;BME280_humidity;BME280_pressure;Samples;Min_cycle;Max_cycle;Signal;HPM_P1;HPM_P2
2022/01/18 00:00:15;;;;;;;41.63;19.23;;;;;;;;;;5052980;28;20457;-58
2022/01/18 00:02:42;;;;;;;62.78;25.95;;;;;;;;;;5052507;28;20475;-60
2022/01/18 00:05:14;;;;;;;34.33;16.85;;;;;;;;;;5051435;28;20086;-57
2022/01/18 00:07:41;;;;;;;50.90;24.15;;;;;;;;;;5053140;28;20021;-58
2022/01/18 00:10:07;;;;;;;37.55;16.83;;;;;;;;;;5052745;28;20036;-58
2022/01/18 00:18:04;;;;;;;35.05;15.88;;;;;;;;;;5012945;28;20450;-62
2022/01/18 00:21:09;;;;;;;37.25;16.40;;;;;;;;;;5012704;28;20114;-60
2022/01/18 00:23:25;;;;;;;54.17;23.65;;;;;;;;;;5010730;28;20034;-62
2022/01/18 00:25:56;;;;;;;36.72;17.25;;;;;;;;;;5012577;28;20439;-62
2022/01/18 00:28:26;;;;;;;22.17;10.55;;;;;;;;;;5012764;28;20045;-62
2022/01/18 00:31:29;;;;;;;41.75;19.58;;;;;;;;;;5012623;28;20069;-60
2022/01/18 00:37:22;;;;;;;30.40;14.23;;;;;;;;;;5018491;28;20494;-61
2022/01/18 00:39:10;;;;;;;25.23;10.90;;;;;;;;;;5029611;28;20444;-60
2022/01/18 00:41:36;;;;;;;15.25;6.82;;;;;;;;;;5032247;28;20132;-61
2022/01/18 00:44:03;;;;;;;31.67;16.40;;;;;;;;;;5032433;28;20082;-64
2022/01/18 00:46:34;;;;;;;22.80;11.43;;;;;;;;;;5032657;28;20030;-48
2022/01/18 00:49:02;;;;;;;12.65;6.07;;;;;;;;;;5032443;28;20112;-47
2022/01/18 00:51:29;;;;;;;17.33;7.43;;;;;;;;;;5031407;28;20029;-47
2022/01/18 00:53:57;;;;;;;21.83;10.20;;;;;;;;;;5032788;28;20104;-48
2022/01/18 00:56:31;;;;;;;17.23;7.45;;;;;;;;;;5074148;28;20029;-49
2022/01/18 00:58:58;;;;;;;43.35;20.20;;;;;;;;;;5074111;28;20056;-49
2022/01/18 01:01:25;;;;;;;43.30;20.08;;;;;;;;;;5074068;28;20102;-49
2022/01/18 01:03:57;;;;;;;32.08;15.25;;;;;;;;;;5074181;28;20029;-47
2022/01/18 01:06:23;;;;;;;32.05;15.43;;;;;;;;;;5074112;28;20047;-48
2022/01/18 01:08:52;;;;;;;23.67;10.02;;;;;;;;;;5074016;28;20027;-46
2022/01/18 01:11:19;;;;;;;23.00;11.05;;;;;;;;;;5073936;28;20035;-49
2022/01/18 01:13:47;;;;;;;23.80;8.38;;;;;;;;;;5073859;28;20410;-48
2022/01/18 01:43:28;;;;;;;22.77;11.40;;;;;;;;;;5031584;28;20117;-47
2022/01/18 01:45:55;;;;;;;25.60;11.43;;;;;;;;;;5031206;28;20116;-49
2022/01/18 01:48:23;;;;;;;46.75;20.63;;;;;;;;;;5031173;28;20033;-48
2022/01/18 01:50:54;;;;;;;36.63;16.95;;;;;;;;;;5031158;28;20501;-50
2022/01/18 01:53:23;;;;;;;22.23;10.33;;;;;;;;;;5031178;28;20029;-48
2022/01/18 01:55:49;;;;;;;26.45;13.13;;;;;;;;;;5030835;28;20045;-48
2022/01/18 01:58:16;;;;;;;14.45;6.63;;;;;;;;;;5031176;28;20041;-48
2022/01/18 02:00:47;;;;;;;20.30;10.15;;;;;;;;;;5031089;28;20044;-47
2022/01/18 02:03:14;;;;;;;24.85;12.30;;;;;;;;;;5031265;28;20035;-49
2022/01/18 02:05:40;;;;;;;27.50;13.20;;;;;;;;;;5031030;28;20029;-48
2022/01/18 02:08:07;;;;;;;17.70;7.80;;;;;;;;;;5047453;28;20033;-48
2022/01/18 02:10:37;;;;;;;21.58;9.05;;;;;;;;;;5073149;28;20470;-51
2022/01/18 02:13:04;;;;;;;11.65;5.32;;;;;;;;;;5073102;28;20025;-48
2022/01/18 02:15:30;;;;;;;19.70;8.93;;;;;;;;;;5073108;28;20054;-49
2022/01/18 02:23:30;;;;;;;7.50;4.53;;;;;;;;;;5073231;28;20070;-48
2022/01/18 02:25:58;;;;;;;35.78;15.68;;;;;;;;;;5072852;28;20025;-47
2022/01/18 02:28:28;;;;;;;7.43;4.00;;;;;;;;;;5072910;28;20086;-47
2022/01/18 02:30:54;;;;;;;10.45;4.05;;;;;;;;;;5072906;28;20025;-47
2022/01/18 02:33:22;;;;;;;9.10;4.28;;;;;;;;;;5073127;28;20028;-48
2022/01/18 02:35:49;;;;;;;7.32;3.35;;;;;;;;;;5072837;28;20020;-47
2022/01/18 02:38:16;;;;;;;32.30;16.38;;;;;;;;;;5072973;28;20036;-47
2022/01/18 02:40:42;;;;;;;7.78;3.15;;;;;;;;;;5072794;28;20409;-47
2022/01/18 02:45:54;;;;;;;24.05;11.98;;;;;;;;;;5086229;28;20042;-47
2022/01/18 02:48:21;;;;;;;8.18;2.75;;;;;;;;;;5072730;28;20025;-48
2022/01/18 02:50:47;;;;;;;5.35;2.13;;;;;;;;;;5072945;28;20442;-47
2022/01/18 02:53:13;;;;;;;16.50;6.25;;;;;;;;;;5072651;28;20466;-47
2022/01/18 02:55:40;;;;;;;6.60;3.30;;;;;;;;;;5072694;28;20020;-47
2022/01/18 02:58:09;;;;;;;14.15;4.95;;;;;;;;;;5072276;28;20398;-48
2022/01/18 03:03:10;;;;;;;14.55;6.18;;;;;;;;;;5072545;28;20383;-48
2022/01/18 03:03:28;;;;;;;26.17;12.88;;;;;;;;;;5072555;28;20428;-48
2022/01/18 03:05:55;;;;;;;7.55;3.20;;;;;;;;;;5072654;28;20021;-48
2022/01/18 03:08:22;;;;;;;22.35;11.15;;;;;;;;;;5072691;28;20021;-47
2022/01/18 03:10:48;;;;;;;8.80;3.55;;;;;;;;;;5072821;28;20036;-49
2022/01/18 03:13:14;;;;;;;8.15;2.97;;;;;;;;;;5073186;28;20062;-49
2022/01/18 03:15:40;;;;;;;6.20;2.40;;;;;;;;;;5076367;28;20096;-47
2022/01/18 03:18:09;;;;;;;14.98;5.97;;;;;;;;;;5076315;28;20024;-47
2022/01/18 03:20:36;;;;;;;11.07;5.13;;;;;;;;;;5076088;28;20456;-47
2022/01/18 03:23:07;;;;;;;14.73;6.60;;;;;;;;;;5076060;28;20421;-47
2022/01/18 03:28:04;;;;;;;14.55;5.88;;;;;;;;;;5075807;28;20774;-47
2022/01/18 03:30:32;;;;;;;23.55;9.77;;;;;;;;;;5076016;28;20028;-47
2022/01/18 03:32:59;;;;;;;11.57;5.47;;;;;;;;;;5075971;28;20028;-47
2022/01/18 03:35:25;;;;;;;20.42;9.07;;;;;;;;;;5075852;28;20025;-47
2022/01/18 03:37:52;;;;;;;9.75;4.13;;;;;;;;;;5075835;28;20024;-48
2022/01/18 03:40:18;;;;;;;14.23;5.65;;;;;;;;;;5075596;28;20056;-49
2022/01/18 03:42:48;;;;;;;17.70;8.10;;;;;;;;;;5075981;28;20038;-48
2022/01/18 03:45:16;;;;;;;16.05;6.60;;;;;;;;;;5075834;28;20048;-47
2022/01/18 03:47:42;;;;;;;13.70;5.65;;;;;;;;;;5075633;28;20032;-48
2022/01/18 03:50:09;;;;;;;22.52;10.93;;;;;;;;;;5075637;28;20028;-49
2022/01/18 03:52:36;;;;;;;13.77;6.25;;;;;;;;;;5074098;28;20024;-47
2022/01/18 03:55:03;;;;;;;15.80;6.28;;;;;;;;;;5075476;28;20048;-50
2022/01/18 03:57:29;;;;;;;11.13;4.47;;;;;;;;;;5075355;28;20103;-47
2022/01/18 03:59:55;;;;;;;13.32;6.50;;;;;;;;;;5075409;28;20036;-50
2022/01/18 04:02:21;;;;;;;15.45;7.22;;;;;;;;;;5075421;28;20029;-49
2022/01/18 04:04:47;;;;;;;16.88;7.50;;;;;;;;;;5075480;28;20150;-48
2022/01/18 04:07:13;;;;;;;14.07;5.47;;;;;;;;;;5075385;28;20047;-48
2022/01/18 04:09:39;;;;;;;13.57;5.65;;;;;;;;;;5075180;28;20364;-48
2022/01/18 04:12:06;;;;;;;16.08;6.82;;;;;;;;;;5075170;28;20112;-48
2022/01/18 04:14:32;;;;;;;10.13;3.70;;;;;;;;;;5075241;28;20023;-49
2022/01/18 04:28:13;;;;;;;9.60;2.80;;;;;;;;;;5032827;28;20060;-48
2022/01/18 04:30:39;;;;;;;6.57;2.65;;;;;;;;;;5032827;28;20029;-49
2022/01/18 04:33:05;;;;;;;5.93;2.47;;;;;;;;;;5032616;28;20385;-47
2022/01/18 04:35:31;;;;;;;8.23;3.45;;;;;;;;;;5032766;28;20025;-48
2022/01/18 04:37:57;;;;;;;9.38;2.92;;;;;;;;;;5032618;28;20045;-48
2022/01/18 04:40:28;;;;;;;7.43;2.60;;;;;;;;;;5032469;28;20029;-48
2022/01/18 04:50:51;;;;;;;36.88;16.23;;;;;;;;;;5032833;28;20071;-65
2022/01/18 04:53:17;;;;;;;9.07;4.38;;;;;;;;;;5032336;28;20025;-66
2022/01/18 04:55:43;;;;;;;10.52;4.38;;;;;;;;;;5043706;28;20036;-64
2022/01/18 04:58:09;;;;;;;13.18;5.70;;;;;;;;;;5074031;28;20107;-64
2022/01/18 05:00:36;;;;;;;12.23;5.07;;;;;;;;;;5074107;28;20485;-57
2022/01/18 05:03:02;;;;;;;9.98;3.55;;;;;;;;;;5074093;28;20053;-66
2022/01/18 05:05:31;;;;;;;18.90;7.70;;;;;;;;;;5074098;28;20021;-62
2022/01/18 05:08:00;;;;;;;15.50;5.65;;;;;;;;;;5073980;28;20052;-64
2022/01/18 05:10:29;;;;;;;14.30;5.57;;;;;;;;;;5074031;28;20473;-63
2022/01/18 05:12:56;;;;;;;24.35;11.00;;;;;;;;;;5074267;28;20359;-64
2022/01/18 05:23:05;;;;;;;;;;;;;;;;;;5074145;28;20361;-63
2022/01/18 05:25:32;;;;;;;25.75;9.13;;;;;;;;;;5073704;28;19905;-65
2022/01/18 05:27:59;;;;;;;19.77;6.85;;;;;;;;;;5073459;28;20072;-65
2022/01/18 05:30:25;;;;;;;14.48;4.93;;;;;;;;;;5073747;28;20028;-66
2022/01/18 05:32:51;;;;;;;23.20;8.35;;;;;;;;;;5073813;28;20021;-67
2022/01/18 05:35:19;;;;;;;11.18;4.47;;;;;;;;;;5073644;28;20025;-68
2022/01/18 05:37:45;;;;;;;25.42;8.98;;;;;;;;;;5073179;28;20025;-66
2022/01/18 05:40:11;;;;;;;18.00;6.25;;;;;;;;;;5073477;28;20021;-66
2022/01/18 05:42:38;;;;;;;13.95;6.57;;;;;;;;;;5073373;28;20029;-63
2022/01/18 05:45:04;;;;;;;17.25;6.50;;;;;;;;;;5073641;28;20063;-64
2022/01/18 05:47:30;;;;;;;17.75;6.15;;;;;;;;;;5073557;28;20028;-64
2022/01/18 05:49:57;;;;;;;21.48;6.90;;;;;;;;;;5073672;28;20025;-63
2022/01/18 05:52:23;;;;;;;19.83;7.65;;;;;;;;;;5073476;28;20016;-65
2022/01/18 05:54:49;;;;;;;12.25;4.40;;;;;;;;;;5073226;28;20493;-68
2022/01/18 05:57:15;;;;;;;21.27;7.10;;;;;;;;;;5073389;28;20032;-64
2022/01/18 05:59:46;;;;;;;34.33;12.73;;;;;;;;;;5073191;28;20028;-65
2022/01/18 06:02:17;;;;;;;26.15;9.50;;;;;;;;;;5073292;28;20084;-66
2022/01/18 06:07:29;;;;;;;26.05;8.68;;;;;;;;;;5073501;28;20036;-67
2022/01/18 06:09:58;;;;;;;25.75;8.88;;;;;;;;;;5073225;28;20028;-60
2022/01/18 06:12:25;;;;;;;15.95;6.25;;;;;;;;;;5073210;28;20024;-65
2022/01/18 06:14:51;;;;;;;19.63;7.20;;;;;;;;;;5073381;28;20073;-64
2022/01/18 06:17:17;;;;;;;16.95;6.63;;;;;;;;;;5073143;28;20032;-63
2022/01/18 06:19:43;;;;;;;22.30;7.25;;;;;;;;;;5073430;28;20070;-63
2022/01/18 06:22:09;;;;;;;16.63;6.00;;;;;;;;;;5073124;28;20398;-62
2022/01/18 06:24:36;;;;;;;44.65;7.03;;;;;;;;;;5073107;28;20028;-62
2022/01/18 06:27:02;;;;;;;15.43;6.35;;;;;;;;;;5073205;28;20029;-64
2022/01/18 06:29:28;;;;;;;22.92;7.13;;;;;;;;;;5072962;28;20050;-61
2022/01/18 06:31:54;;;;;;;18.35;8.02;;;;;;;;;;5072969;28;20024;-65
2022/01/18 06:34:20;;;;;;;17.48;7.03;;;;;;;;;;5072943;28;20020;-60
2022/01/18 06:36:48;;;;;;;18.58;8.00;;;;;;;;;;5072998;28;20169;-61
2022/01/18 06:39:16;;;;;;;22.52;8.25;;;;;;;;;;5072907;28;20030;-63
2022/01/18 06:41:43;;;;;;;13.73;6.88;;;;;;;;;;5072860;28;20033;-60
2022/01/18 06:44:09;;;;;;;18.23;8.40;;;;;;;;;;5072873;28;20017;-60
2022/01/18 06:46:36;;;;;;;19.05;8.48;;;;;;;;;;5072985;28;20033;-61
2022/01/18 06:49:02;;;;;;;22.88;9.85;;;;;;;;;;5074908;28;20032;-61
2022/01/18 06:51:28;;;;;;;26.75;12.55;;;;;;;;;;5076621;28;20025;-60
2022/01/18 06:53:56;;;;;;;25.70;14.18;;;;;;;;;;5076858;28;20028;-61
2022/01/18 06:56:22;;;;;;;25.80;12.98;;;;;;;;;;5076672;28;20387;-61
2022/01/18 06:58:49;;;;;;;26.25;12.88;;;;;;;;;;5076702;28;20066;-61
2022/01/18 07:01:15;;;;;;;29.45;13.38;;;;;;;;;;5076517;28;20036;-62
2022/01/18 07:03:41;;;;;;;29.27;13.20;;;;;;;;;;5076488;28;20024;-61
2022/01/18 07:06:07;;;;;;;27.77;13.10;;;;;;;;;;5075120;28;20039;-59
2022/01/18 07:08:34;;;;;;;23.20;12.15;;;;;;;;;;5076420;28;20020;-59
2022/01/18 07:11:01;;;;;;;25.60;10.80;;;;;;;;;;5076566;28;20035;-60
2022/01/18 07:13:27;;;;;;;32.20;14.10;;;;;;;;;;5076490;28;20028;-61
2022/01/18 07:15:53;;;;;;;35.00;16.33;;;;;;;;;;5076428;28;20085;-60
2022/01/18 07:18:21;;;;;;;42.88;16.17;;;;;;;;;;5091860;28;20025;-60
2022/01/18 07:20:50;;;;;;;42.03;16.75;;;;;;;;;;5076078;28;20078;-60
2022/01/18 07:23:18;;;;;;;36.17;17.98;;;;;;;;;;5076308;28;20452;-60
2022/01/18 07:25:46;;;;;;;37.53;15.98;;;;;;;;;;5076157;28;20027;-60
2022/01/18 07:28:14;;;;;;;28.30;14.05;;;;;;;;;;5075813;28;20068;-60
2022/01/18 07:30:40;;;;;;;34.22;15.25;;;;;;;;;;5076040;28;20551;-60
2022/01/18 07:33:06;;;;;;;37.83;18.73;;;;;;;;;;5076034;28;20046;-60
2022/01/18 07:35:34;;;;;;;32.38;16.13;;;;;;;;;;5075778;28;20462;-60
2022/01/18 07:38:01;;;;;;;30.98;15.07;;;;;;;;;;5075695;28;20029;-60
2022/01/18 07:40:28;;;;;;;32.33;16.48;;;;;;;;;;5075959;28;20390;-61
2022/01/18 07:42:59;;;;;;;31.35;16.40;;;;;;;;;;5075787;28;20059;-61
2022/01/18 07:45:26;;;;;;;30.75;15.35;;;;;;;;;;5075832;28;20040;-62
2022/01/18 07:47:52;;;;;;;32.22;15.68;;;;;;;;;;5075662;28;20055;-63
2022/01/18 07:50:18;;;;;;;33.28;15.60;;;;;;;;;;5075713;28;20016;-62
2022/01/18 07:52:44;;;;;;;32.65;14.40;;;;;;;;;;5075608;28;20104;-62
2022/01/18 07:55:11;;;;;;;28.38;15.25;;;;;;;;;;5075751;28;20020;-62
2022/01/18 07:57:41;;;;;;;29.30;14.88;;;;;;;;;;5075378;28;20489;-60
2022/01/18 08:00:08;;;;;;;30.77;14.18;;;;;;;;;;5075363;28;20060;-61
2022/01/18 08:02:36;;;;;;;34.15;17.08;;;;;;;;;;5075573;28;20082;-61
2022/01/18 08:05:02;;;;;;;32.58;15.88;;;;;;;;;;5075264;28;20024;-61
2022/01/18 08:07:28;;;;;;;30.30;13.93;;;;;;;;;;5075308;28;20032;-63
2022/01/18 08:09:54;;;;;;;33.85;15.18;;;;;;;;;;5075152;28;20021;-62
2022/01/18 08:12:20;;;;;;;38.13;13.43;;;;;;;;;;5075210;28;20029;-60
2022/01/18 08:14:47;;;;;;;30.60;14.10;;;;;;;;;;5075336;28;20592;-60
2022/01/18 08:17:13;;;;;;;26.90;10.57;;;;;;;;;;5075119;28;20111;-62
2022/01/18 08:19:39;;;;;;;25.67;11.60;;;;;;;;;;5075015;28;20021;-62
2022/01/18 08:22:06;;;;;;;21.10;9.77;;;;;;;;;;5074844;28;20111;-62
2022/01/18 08:24:32;;;;;;;27.13;11.90;;;;;;;;;;5075024;28;20394;-65
2022/01/18 08:27:01;;;;;;;37.63;19.95;;;;;;;;;;5074809;28;20039;-62
2022/01/18 08:29:27;;;;;;;63.15;30.42;;;;;;;;;;5074678;28;20085;-63
2022/01/18 08:31:53;;;;;;;50.50;25.48;;;;;;;;;;5074746;28;20059;-62
2022/01/18 08:34:21;;;;;;;53.67;24.70;;;;;;;;;;5074664;28;20072;-62
2022/01/18 08:36:47;;;;;;;45.47;23.48;;;;;;;;;;5074685;28;20017;-64
2022/01/18 08:39:13;;;;;;;32.08;13.90;;;;;;;;;;5074637;28;20140;-65
2022/01/18 08:41:39;;;;;;;31.60;15.07;;;;;;;;;;5074604;28;20591;-66
2022/01/18 08:44:06;;;;;;;39.78;19.85;;;;;;;;;;5074605;28;20451;-63
2022/01/18 08:46:32;;;;;;;51.28;26.65;;;;;;;;;;5074477;28;20028;-64
2022/01/18 08:48:58;;;;;;;32.67;17.35;;;;;;;;;;5074369;28;20370;-64
2022/01/18 08:51:24;;;;;;;35.53;15.55;;;;;;;;;;5074324;28;20389;-63
2022/01/18 08:53:50;;;;;;;30.90;16.00;;;;;;;;;;5074088;28;20021;-64
2022/01/18 08:56:20;;;;;;;34.25;17.42;;;;;;;;;;5074198;28;20032;-59
2022/01/18 08:58:50;;;;;;;23.90;11.30;;;;;;;;;;5074317;28;20029;-60
2022/01/18 09:01:16;;;;;;;41.65;13.23;;;;;;;;;;5074126;28;20040;-59
2022/01/18 09:03:42;;;;;;;25.90;10.63;;;;;;;;;;5074113;28;20078;-60
2022/01/18 09:06:12;;;;;;;23.58;9.73;;;;;;;;;;5074101;28;20026;-60
2022/01/18 09:08:38;;;;;;;21.83;9.20;;;;;;;;;;5073996;28;20023;-60
2022/01/18 09:11:04;;;;;;;29.00;11.25;;;;;;;;;;5073545;28;20020;-59
2022/01/18 09:13:34;;;;;;;24.40;9.07;;;;;;;;;;5074037;28;20039;-60
2022/01/18 09:16:00;;;;;;;26.42;9.88;;;;;;;;;;5073920;28;20020;-61
2022/01/18 09:18:26;;;;;;;22.83;8.27;;;;;;;;;;5074349;28;20085;-60
2022/01/18 09:20:52;;;;;;;23.40;9.00;;;;;;;;;;5074279;28;20059;-61
2022/01/18 09:23:18;;;;;;;24.70;9.05;;;;;;;;;;5073954;28;20021;-59
2022/01/18 09:25:44;;;;;;;22.17;8.02;;;;;;;;;;5073975;28;20028;-61
2022/01/18 09:28:11;;;;;;;18.30;7.32;;;;;;;;;;5073688;28;20048;-60
2022/01/18 09:30:40;;;;;;;14.90;5.65;;;;;;;;;;5073654;28;20449;-60
2022/01/18 09:33:06;;;;;;;18.55;6.93;;;;;;;;;;5073904;28;20020;-61
2022/01/18 09:35:36;;;;;;;18.23;6.40;;;;;;;;;;5073840;28;20020;-59
2022/01/18 09:38:03;;;;;;;18.30;7.00;;;;;;;;;;5073648;28;20036;-60
2022/01/18 09:40:29;;;;;;;19.73;6.18;;;;;;;;;;5073758;28;20048;-60
2022/01/18 09:42:59;;;;;;;19.67;6.70;;;;;;;;;;5089196;28;20119;-60
2022/01/18 09:45:25;;;;;;;18.58;7.63;;;;;;;;;;5073550;28;20096;-62
2022/01/18 09:47:52;;;;;;;15.75;6.18;;;;;;;;;;5073560;28;20027;-59
2022/01/18 09:50:23;;;;;;;18.85;6.00;;;;;;;;;;5073307;28;20020;-62
2022/01/18 09:52:55;;;;;;;13.45;5.13;;;;;;;;;;5073434;28;20021;-61
2022/01/18 09:55:26;;;;;;;25.30;6.93;;;;;;;;;;5073321;28;20108;-61
2022/01/18 09:57:56;;;;;;;18.83;6.30;;;;;;;;;;5073365;28;20020;-61
2022/01/18 10:00:23;;;;;;;21.77;5.80;;;;;;;;;;5072136;28;20390;-58
2022/01/18 10:02:49;;;;;;;13.13;5.32;;;;;;;;;;5073254;28;20124;-58
2022/01/18 10:05:34;;;;;;;21.15;6.32;;;;;;;;;;5073302;28;20478;-61
2022/01/18 10:08:02;;;;;;;22.92;7.15;;;;;;;;;;5073176;28;20035;-60
2022/01/18 10:10:39;;;;;;;22.38;4.78;;;;;;;;;;5073185;28;20020;-60
2022/01/18 10:13:05;;;;;;;17.25;5.32;;;;;;;;;;5072902;28;20039;-62
2022/01/18 10:15:31;;;;;;;21.90;6.13;;;;;;;;;;5073186;28;20024;-62
2022/01/18 10:18:05;;;;;;;20.85;5.70;;;;;;;;;;5073085;28;20119;-61
2022/01/18 10:20:31;;;;;;;18.08;6.43;;;;;;;;;;5073681;28;20412;-59
2022/01/18 10:23:00;;;;;;;26.90;10.10;;;;;;;;;;5075047;28;20043;-59
2022/01/18 10:25:29;;;;;;;13.50;4.90;;;;;;;;;;5077208;28;20021;-59
2022/01/18 10:27:56;;;;;;;15.45;4.75;;;;;;;;;;5077337;28;20048;-59
2022/01/18 10:30:38;;;;;;;19.67;6.15;;;;;;;;;;5077432;28;20432;-62
2022/01/18 10:33:21;;;;;;;15.70;5.75;;;;;;;;;;5077264;28;20017;-61
2022/01/18 10:36:03;;;;;;;18.73;5.80;;;;;;;;;;5077019;28;20020;-61
2022/01/18 10:38:29;;;;;;;24.88;6.00;;;;;;;;;;5076862;28;20374;-63
2022/01/18 10:40:55;;;;;;;18.58;6.85;;;;;;;;;;5076974;28;20111;-60
2022/01/18 10:43:32;;;;;;;11.32;4.15;;;;;;;;;;5077117;28;20059;-59
2022/01/18 10:46:15;;;;;;;13.45;5.05;;;;;;;;;;5076904;28;20020;-60
2022/01/18 10:48:48;;;;;;;22.08;5.60;;;;;;;;;;5076848;28;20103;-59
2022/01/18 10:51:30;;;;;;;15.73;5.38;;;;;;;;;;5076754;28;20035;-58
2022/01/18 10:54:03;;;;;;;18.38;5.43;;;;;;;;;;5076786;28;20108;-58
2022/01/18 10:56:39;;;;;;;20.65;6.00;;;;;;;;;;5092211;28;20061;-59
2022/01/18 10:59:05;;;;;;;20.73;6.97;;;;;;;;;;5076612;28;20562;-59
2022/01/18 11:01:32;;;;;;;15.63;6.68;;;;;;;;;;5076455;28;20059;-59
2022/01/18 11:04:11;;;;;;;19.88;6.82;;;;;;;;;;5076640;28;20027;-59
2022/01/18 11:06:42;;;;;;;19.00;5.90;;;;;;;;;;5076737;28;20020;-59
2022/01/18 11:09:13;;;;;;;22.05;6.30;;;;;;;;;;5076361;28;20424;-59
2022/01/18 11:11:46;;;;;;;22.10;7.10;;;;;;;;;;5076417;28;20029;-61
2022/01/18 11:14:13;;;;;;;18.85;6.35;;;;;;;;;;5076398;28;20050;-60
2022/01/18 11:16:43;;;;;;;21.63;6.82;;;;;;;;;;5076219;28;20059;-59
2022/01/18 11:19:32;;;;;;;21.73;6.63;;;;;;;;;;5076187;28;20550;-59
2022/01/18 11:22:06;;;;;;;15.77;6.20;;;;;;;;;;5076100;28;20033;-57
2022/01/18 11:24:35;;;;;;;25.85;8.75;;;;;;;;;;5075974;28;20074;-60
2022/01/18 11:27:03;;;;;;;31.63;9.93;;;;;;;;;;5076145;28;20497;-56
2022/01/18 11:29:31;;;;;;;36.75;11.77;;;;;;;;;;5075937;28;20049;-61
2022/01/18 11:31:58;;;;;;;24.48;8.63;;;;;;;;;;5075899;28;20029;-57
2022/01/18 11:34:24;;;;;;;17.77;5.78;;;;;;;;;;5075337;28;20028;-56
2022/01/18 11:36:51;;;;;;;17.15;4.55;;;;;;;;;;5075790;28;20048;-56
2022/01/18 11:39:23;;;;;;;20.85;7.15;;;;;;;;;;5075737;28;20474;-56
2022/01/18 11:41:49;;;;;;;25.90;9.10;;;;;;;;;;5075853;28;20036;-55
2022/01/18 11:44:16;;;;;;;39.53;11.60;;;;;;;;;;5075895;28;20466;-57
2022/01/18 11:46:50;;;;;;;47.58;16.00;;;;;;;;;;5075809;28;20039;-58
2022/01/18 11:49:16;;;;;;;71.43;30.48;;;;;;;;;;5075583;28;20033;-56
2022/01/18 11:51:49;;;;;;;61.97;24.75;;;;;;;;;;5075597;28;20435;-54
2022/01/18 11:54:43;;;;;;;48.60;19.48;;;;;;;;;;5075695;28;20079;-45
2022/01/18 11:57:22;;;;;;;40.28;15.90;;;;;;;;;;5075537;28;20116;-44
2022/01/18 11:59:49;;;;;;;50.78;20.45;;;;;;;;;;5075456;28;20048;-45
2022/01/18 12:02:33;;;;;;;42.55;18.80;;;;;;;;;;5075895;28;20064;-45
2022/01/18 12:05:12;;;;;;;47.53;18.52;;;;;;;;;;5075371;28;20170;-44
2022/01/18 12:07:39;;;;;;;27.52;13.80;;;;;;;;;;5075387;28;20075;-46
2022/01/18 12:10:08;;;;;;;39.50;17.30;;;;;;;;;;5075332;28;20025;-46
2022/01/18 12:12:37;;;;;;;31.60;10.40;;;;;;;;;;5075240;28;20056;-45
2022/01/18 12:15:03;;;;;;;42.00;18.70;;;;;;;;;;5075065;28;20103;-56
2022/01/18 12:17:40;;;;;;;23.23;8.55;;;;;;;;;;5075135;28;20100;-59
2022/01/18 12:20:06;;;;;;;35.95;15.68;;;;;;;;;;5075066;28;20020;-57
2022/01/18 12:22:59;;;;;;;33.17;16.20;;;;;;;;;;5075248;28;20028;-58
2022/01/18 12:25:30;;;;;;;50.75;18.48;;;;;;;;;;5073835;28;20127;-58
2022/01/18 12:28:02;;;;;;;45.47;20.67;;;;;;;;;;5075091;28;20040;-59
2022/01/18 12:30:54;;;;;;;125.68;46.08;;;;;;;;;;5074903;28;20035;-61
2022/01/18 12:33:21;;;;;;;44.35;17.70;;;;;;;;;;5074867;28;20021;-56
2022/01/18 12:35:47;;;;;;;97.60;34.55;;;;;;;;;;5074703;28;20031;-52
2022/01/18 12:38:23;;;;;;;79.65;25.95;;;;;;;;;;5074844;28;20016;-56
2022/01/18 12:40:49;;;;;;;68.93;27.02;;;;;;;;;;5074664;28;20033;-55
2022/01/18 12:45:42;;;;;;;49.80;18.15;;;;;;;;;;5073785;28;20025;-59
2022/01/18 12:48:14;;;;;;;32.67;12.95;;;;;;;;;;5074381;28;20077;-58
2022/01/18 12:50:40;;;;;;;36.88;11.63;;;;;;;;;;5074419;28;20090;-55
2022/01/18 12:53:07;;;;;;;29.98;10.00;;;;;;;;;;5074586;28;20099;-54
2022/01/18 12:55:47;;;;;;;25.05;7.75;;;;;;;;;;5074420;28;20043;-55
2022/01/18 12:58:34;;;;;;;24.42;7.93;;;;;;;;;;5074224;28;20028;-57
2022/01/18 13:01:05;;;;;;;20.77;5.78;;;;;;;;;;5074397;28;20020;-56
2022/01/18 13:03:33;;;;;;;22.38;5.97;;;;;;;;;;5074230;28;20032;-56
2022/01/18 13:06:00;;;;;;;17.42;4.88;;;;;;;;;;5074064;28;20036;-55
2022/01/18 13:08:29;;;;;;;18.90;4.70;;;;;;;;;;5074062;28;20029;-56
2022/01/18 13:10:55;;;;;;;16.35;5.28;;;;;;;;;;5074197;28;20020;-55
2022/01/18 13:13:29;;;;;;;39.50;11.30;;;;;;;;;;5074075;28;20032;-56
2022/01/18 13:27:07;;;;;;;33.25;8.32;;;;;;;;;;5074181;28;20056;-56
2022/01/18 13:29:35;;;;;;;25.38;7.47;;;;;;;;;;5073427;28;20064;-56
2022/01/18 13:32:11;;;;;;;23.50;7.28;;;;;;;;;;5073978;28;20021;-55
2022/01/18 13:34:38;;;;;;;23.75;7.15;;;;;;;;;;5073682;28;20024;-55
2022/01/18 13:37:07;;;;;;;21.20;6.47;;;;;;;;;;5073745;28;20048;-62
2022/01/18 13:39:40;;;;;;;26.05;8.02;;;;;;;;;;5073572;28;20064;-56
2022/01/18 13:42:06;;;;;;;22.15;7.10;;;;;;;;;;5073476;28;20517;-57
2022/01/18 13:44:32;;;;;;;22.17;7.10;;;;;;;;;;5073606;28;20028;-57
2022/01/18 13:47:31;;;;;;;19.95;6.35;;;;;;;;;;5073885;28;20028;-57
2022/01/18 13:49:57;;;;;;;16.52;6.28;;;;;;;;;;5071350;28;20102;-56
2022/01/18 13:52:36;;;;;;;16.75;5.38;;;;;;;;;;5071501;28;20211;-56
2022/01/18 13:55:02;;;;;;;19.35;5.35;;;;;;;;;;5071468;28;20608;-57
2022/01/18 13:57:28;;;;;;;19.73;5.05;;;;;;;;;;5070810;28;20033;-57
2022/01/18 13:59:54;;;;;;;17.00;5.55;;;;;;;;;;5071210;28;20045;-54
2022/01/18 14:02:22;;;;;;;14.43;5.20;;;;;;;;;;5071382;28;20127;-57
2022/01/18 14:05:05;;;;;;;21.33;4.75;;;;;;;;;;5071373;28;20063;-56
2022/01/18 14:07:31;;;;;;;15.75;5.32;;;;;;;;;;5071096;28;20028;-59
2022/01/18 14:09:58;;;;;;;23.88;8.05;;;;;;;;;;5071020;28;20436;-55
2022/01/18 14:12:31;;;;;;;26.85;10.02;;;;;;;;;;5070951;28;20043;-58
2022/01/18 14:14:57;;;;;;;23.50;6.65;;;;;;;;;;5070299;28;20387;-58
2022/01/18 14:17:25;;;;;;;16.60;6.20;;;;;;;;;;5071228;28;20033;-57
2022/01/18 14:20:01;;;;;;;20.52;6.32;;;;;;;;;;5071118;28;20032;-55
2022/01/18 14:22:27;;;;;;;18.50;5.88;;;;;;;;;;5071111;28;20040;-58
2022/01/18 14:24:59;;;;;;;22.70;6.07;;;;;;;;;;5071374;28;20028;-58
2022/01/18 14:27:25;;;;;;;21.42;6.90;;;;;;;;;;5073069;28;20358;-58
2022/01/18 14:29:58;;;;;;;24.02;6.38;;;;;;;;;;5072919;28;20048;-57
2022/01/18 14:32:42;;;;;;;22.25;10.18;;;;;;;;;;5077952;28;20580;-57
2022/01/18 14:35:09;;;;;;;23.50;9.48;;;;;;;;;;5093029;28;20450;-57
2022/01/18 14:37:40;;;;;;;29.25;11.75;;;;;;;;;;5092961;28;20382;-56
2022/01/18 14:40:08;;;;;;;39.60;17.90;;;;;;;;;;5092789;28;20028;-57
2022/01/18 14:42:48;;;;;;;50.65;22.80;;;;;;;;;;5092802;28;20032;-56
2022/01/18 14:47:43;;;;;;;35.72;15.90;;;;;;;;;;5093051;28;20478;-56
2022/01/18 14:50:13;;;;;;;61.05;23.92;;;;;;;;;;5092975;28;20107;-57
2022/01/18 14:52:44;;;;;;;37.60;14.40;;;;;;;;;;5092929;28;20490;-57
2022/01/18 14:55:13;;;;;;;37.35;12.52;;;;;;;;;;5092859;28;20020;-57
2022/01/18 14:57:39;;;;;;;81.20;48.90;;;;;;;;;;5092999;28;20024;-56
2022/01/18 15:00:07;;;;;;;41.72;17.20;;;;;;;;;;5093250;28;20028;-58
2022/01/18 15:02:33;;;;;;;41.88;13.80;;;;;;;;;;5092940;28;20036;-57
2022/01/18 15:04:59;;;;;;;41.78;13.82;;;;;;;;;;5092964;28;20070;-57
2022/01/18 15:07:25;;;;;;;37.17;16.08;;;;;;;;;;5092584;28;20474;-58
2022/01/18 15:09:54;;;;;;;40.33;14.88;;;;;;;;;;5094685;28;20016;-57
2022/01/18 15:12:20;;;;;;;24.85;8.52;;;;;;;;;;5096792;28;20494;-57
2022/01/18 15:14:46;;;;;;;40.88;15.27;;;;;;;;;;5096594;28;20073;-57
2022/01/18 15:17:13;;;;;;;45.45;14.52;;;;;;;;;;5096533;28;20024;-54
2022/01/18 15:19:39;;;;;;;38.67;14.65;;;;;;;;;;5096460;28;20466;-57
2022/01/18 15:22:09;;;;;;;32.03;11.43;;;;;;;;;;5096188;28;20032;-56
2022/01/18 15:24:36;;;;;;;29.73;12.35;;;;;;;;;;5096318;28;20027;-56
2022/01/18 15:27:02;;;;;;;44.97;18.17;;;;;;;;;;5096355;28;20035;-56
2022/01/18 15:29:28;;;;;;;40.45;14.52;;;;;;;;;;5096070;28;20044;-56
2022/01/18 15:31:55;;;;;;;27.15;12.35;;;;;;;;;;5096461;28;20378;-56
2022/01/18 15:34:21;;;;;;;41.22;12.85;;;;;;;;;;5096161;28;20023;-56
2022/01/18 15:36:47;;;;;;;30.77;12.40;;;;;;;;;;5096092;28;20035;-56
2022/01/18 15:39:15;;;;;;;23.13;8.85;;;;;;;;;;5096077;28;20028;-56
2022/01/18 15:41:42;;;;;;;42.78;15.57;;;;;;;;;;5096081;28;20378;-57
2022/01/18 15:44:08;;;;;;;33.85;12.50;;;;;;;;;;5095832;28;20584;-57
2022/01/18 15:46:35;;;;;;;41.30;12.35;;;;;;;;;;5095904;28;20025;-57
2022/01/18 15:49:04;;;;;;;35.63;13.00;;;;;;;;;;5095817;28;20085;-57
2022/01/18 15:51:32;;;;;;;34.00;13.50;;;;;;;;;;5095618;28;20024;-57
2022/01/18 15:54:00;;;;;;;49.42;17.08;;;;;;;;;;5095687;28;20056;-58
2022/01/18 15:56:27;;;;;;;54.80;21.80;;;;;;;;;;5095767;28;20051;-57
2022/01/18 15:58:53;;;;;;;62.15;26.35;;;;;;;;;;5095867;28;20486;-55
2022/01/18 16:01:22;;;;;;;62.28;28.08;;;;;;;;;;5095745;28;20032;-56
2022/01/18 16:03:48;;;;;;;70.53;29.38;;;;;;;;;;5095526;28;20036;-56
2022/01/18 16:06:15;;;;;;;69.07;31.30;;;;;;;;;;5095311;28;20036;-56